Time;durP1;ratioP1;P1;durP2;ratioP2;P2;SDS_P1;SDS_P2;PMS_P1;PMS_P2;Temp;Humidity;BMP_temperature;BMP_pressure;BME280_temperature;BME280_humidity;BME280_pressure;Samples;Min_cycle;Max_cycle;Signal;HPM_P1;HPM_P2
2023/12/13 00:00:58;;;;;;;42.40;15.40;;;;;;;0.58;100.00;99345.27;105184;1262;81424;-61
2023/12/13 00:03:35;;;;;;;148.10;33.20;;;;;;;0.54;100.00;99344.64;105107;1261;73030;-61
2023/12/13 00:06:04;;;;;;;59.50;21.30;;;;;;;0.54;100.00;99337.93;105175;1260;69588;-61
2023/12/13 00:08:32;;;;;;;63.20;21.90;;;;;;;0.53;100.00;99335.19;105183;1261;69192;-61
2023/12/13 00:11:00;;;;;;;53.80;19.60;;;;;;;0.55;100.00;99333.44;105186;1258;73243;-61
2023/12/13 00:13:28;;;;;;;30.90;17.20;;;;;;;0.55;100.00;99334.83;105167;1260;82016;-61
2023/12/13 00:15:57;;;;;;;61.80;21.30;;;;;;;0.61;100.00;99329.39;105199;1260;72512;-61
2023/12/13 00:18:25;;;;;;;52.40;17.80;;;;;;;0.62;100.00;99330.95;105093;1260;69148;-61
2023/12/13 00:20:53;;;;;;;48.90;18.90;;;;;;;0.54;100.00;99326.23;105169;1270;69205;-61
2023/12/13 00:23:22;;;;;;;48.30;18.00;;;;;;;0.48;100.00;99329.77;105200;1262;72558;-61
2023/12/13 00:25:50;;;;;;;38.40;16.80;;;;;;;0.40;100.00;99325.21;105139;1260;83509;-61
2023/12/13 00:28:19;;;;;;;39.80;16.70;;;;;;;0.34;100.00;99317.05;105153;1261;72047;-61
2023/12/13 00:30:47;;;;;;;29.40;16.30;;;;;;;0.30;100.00;99301.13;105123;1257;69133;-61
2023/12/13 00:33:15;;;;;;;27.80;14.60;;;;;;;0.33;100.00;99293.17;105153;1261;69282;-61
2023/12/13 00:35:43;;;;;;;27.00;14.20;;;;;;;0.38;100.00;99290.71;105165;1260;73226;-61
2023/12/13 00:38:11;;;;;;;27.80;14.70;;;;;;;0.40;100.00;99296.86;105151;1270;81716;-61
2023/12/13 00:40:40;;;;;;;38.50;18.10;;;;;;;0.42;100.00;99296.83;105188;1258;71437;-61
2023/12/13 00:43:08;;;;;;;35.10;17.10;;;;;;;0.49;100.00;99297.09;105143;1261;69161;-61
2023/12/13 00:45:36;;;;;;;40.00;19.30;;;;;;;0.55;100.00;99296.14;105138;1260;69294;-61
2023/12/13 00:48:04;;;;;;;34.30;17.00;;;;;;;0.64;100.00;99301.02;105151;1262;72943;-60
2023/12/13 00:50:33;;;;;;;46.50;23.00;;;;;;;0.71;100.00;99314.48;105246;1261;81898;-61
2023/12/13 00:53:01;;;;;;;37.50;21.40;;;;;;;0.81;100.00;99319.84;105108;1258;71612;-61
2023/12/13 00:55:29;;;;;;;40.40;21.40;;;;;;;0.94;100.00;99324.81;105168;1262;69145;-61
2023/12/13 00:57:58;;;;;;;92.00;32.00;;;;;;;1.05;100.00;99325.48;105219;1262;69191;-61
2023/12/13 01:00:26;;;;;;;83.40;30.50;;;;;;;1.20;100.00;99310.98;105210;1262;73118;-61
2023/12/13 01:02:54;;;;;;;52.40;25.70;;;;;;;1.34;100.00;99315.39;105105;1261;81949;-61
2023/12/13 01:05:22;;;;;;;59.30;28.00;;;;;;;1.46;100.00;99317.25;105152;1261;71685;-61
2023/12/13 01:07:51;;;;;;;75.90;28.90;;;;;;;1.55;100.00;99310.73;105170;1261;69138;-61
2023/12/13 01:10:20;;;;;;;61.90;29.00;;;;;;;1.62;100.00;99312.48;105158;1260;69217;-61
2023/12/13 01:12:48;;;;;;;67.90;27.50;;;;;;;1.67;100.00;99310.85;105196;1260;73113;-61
2023/12/13 01:15:16;;;;;;;149.10;53.90;;;;;;;1.72;100.00;99314.54;105171;1260;81892;-61
2023/12/13 01:17:44;;;;;;;126.80;45.60;;;;;;;1.80;100.00;99306.31;105122;1257;70577;-61
2023/12/13 01:20:13;;;;;;;193.30;64.30;;;;;;;1.88;100.00;99301.33;105123;1261;69164;-61
2023/12/13 01:22:41;;;;;;;70.90;29.80;;;;;;;1.92;100.00;99295.90;105118;1261;69224;-61
2023/12/13 01:25:09;;;;;;;43.40;22.10;;;;;;;1.95;100.00;99293.77;105174;1260;73140;-61
2023/12/13 01:27:38;;;;;;;36.50;21.00;;;;;;;1.96;100.00;99286.86;105198;1261;81719;-61
2023/12/13 01:30:08;;;;;;;37.70;18.20;;;;;;;1.98;100.00;99280.81;105128;1260;72100;-61
2023/12/13 01:32:36;;;;;;;29.40;18.00;;;;;;;1.99;100.00;99279.58;105193;1260;69117;-61
2023/12/13 01:35:06;;;;;;;29.80;17.00;;;;;;;1.99;100.00;99272.33;105184;1262;69187;-61
2023/12/13 01:37:34;;;;;;;29.70;17.10;;;;;;;1.99;100.00;99268.19;105198;1261;72998;-61
2023/12/13 01:40:03;;;;;;;27.50;17.20;;;;;;;1.99;100.00;99264.41;105192;1261;81730;-61
2023/12/13 01:42:31;;;;;;;29.20;16.20;;;;;;;1.99;100.00;99264.58;105129;1264;73009;-61
2023/12/13 01:44:59;;;;;;;24.30;15.00;;;;;;;1.99;100.00;99258.71;105133;1260;69132;-61
2023/12/13 01:47:28;;;;;;;28.90;17.10;;;;;;;1.98;100.00;99259.63;105096;1261;69167;-61
2023/12/13 01:49:56;;;;;;;25.40;15.80;;;;;;;1.97;100.00;99260.16;105139;1261;71433;-61
2023/12/13 01:52:24;;;;;;;29.20;16.70;;;;;;;1.96;100.00;99263.10;105051;1264;81446;-61
2023/12/13 01:54:52;;;;;;;31.10;19.10;;;;;;;1.96;100.00;99258.61;105043;1257;71827;-61
2023/12/13 01:57:20;;;;;;;33.00;19.70;;;;;;;1.98;100.00;99253.77;105152;1257;69027;-61
2023/12/13 01:59:49;;;;;;;29.20;18.40;;;;;;;1.99;100.00;99248.71;105131;1259;69172;-61
2023/12/13 02:02:17;;;;;;;30.80;17.80;;;;;;;1.97;100.00;99246.52;105209;1263;71842;-61
2023/12/13 02:04:46;;;;;;;27.70;16.20;;;;;;;1.96;100.00;99246.73;105128;1260;82602;-61
2023/12/13 02:07:15;;;;;;;22.80;14.90;;;;;;;1.93;100.00;99246.95;105136;1261;73009;-61
2023/12/13 02:09:43;;;;;;;29.60;17.90;;;;;;;1.91;100.00;99246.15;105271;1263;69221;-61
2023/12/13 02:12:11;;;;;;;30.40;18.70;;;;;;;1.90;100.00;99242.52;105177;1257;69118;-61
2023/12/13 02:14:40;;;;;;;34.30;19.00;;;;;;;1.91;100.00;99243.56;105077;1257;72173;-61
2023/12/13 02:17:08;;;;;;;30.80;19.40;;;;;;;1.92;100.00;99244.92;105169;1261;81377;-61
2023/12/13 02:19:37;;;;;;;32.20;18.70;;;;;;;1.92;100.00;99243.89;105123;1260;72001;-61
2023/12/13 02:22:07;;;;;;;30.40;18.70;;;;;;;1.91;100.00;99237.88;105190;1260;69587;-61
2023/12/13 02:24:37;;;;;;;32.90;19.10;;;;;;;1.92;100.00;99234.23;105179;1260;69180;-61
2023/12/13 02:27:06;;;;;;;29.90;19.00;;;;;;;1.95;100.00;99233.14;105147;1264;73134;-61
2023/12/13 02:29:34;;;;;;;35.00;19.40;;;;;;;1.96;100.00;99228.11;105124;1257;81836;-61
2023/12/13 02:32:03;;;;;;;29.10;18.20;;;;;;;1.96;100.00;99226.73;105191;1257;72105;-61
2023/12/13 02:34:31;;;;;;;32.50;18.20;;;;;;;1.94;100.00;99226.43;105210;1261;69107;-61
2023/12/13 02:37:02;;;;;;;31.60;16.90;;;;;;;1.92;100.00;99229.23;105170;1258;69188;-61
2023/12/13 02:39:30;;;;;;;;;;;;;;;1.91;100.00;99227.04;105179;1257;73473;-61
2023/12/13 02:41:58;;;;;;;31.20;17.00;;;;;;;1.88;100.00;99222.61;105192;1260;81421;-61
2023/12/13 02:44:26;;;;;;;36.80;19.20;;;;;;;1.85;100.00;99218.19;105135;1260;71615;-61
2023/12/13 02:46:57;;;;;;;29.80;17.00;;;;;;;1.84;100.00;99215.62;105132;1260;69122;-61
2023/12/13 02:49:26;;;;;;;29.60;18.10;;;;;;;1.86;100.00;99208.17;105181;1260;69193;-61
2023/12/13 02:51:54;;;;;;;30.40;19.00;;;;;;;1.88;100.00;99210.20;105206;1260;74169;-61
2023/12/13 02:54:23;;;;;;;35.50;20.60;;;;;;;1.92;100.00;99203.58;105151;1260;81721;-61
2023/12/13 02:56:51;;;;;;;30.10;17.40;;;;;;;1.99;100.00;99199.46;105107;1258;70632;-61
2023/12/13 02:59:19;;;;;;;33.60;18.20;;;;;;;2.02;100.00;99195.42;105160;1261;69227;-61
2023/12/13 03:01:47;;;;;;;38.10;19.60;;;;;;;2.05;100.00;99194.16;105177;1260;69154;-61
2023/12/13 03:04:15;;;;;;;37.70;21.70;;;;;;;2.05;100.00;99190.38;105135;1257;73543;-61
2023/12/13 03:06:44;;;;;;;41.50;22.30;;;;;;;2.06;100.00;99186.92;105098;1257;81556;-61
2023/12/13 03:09:12;;;;;;;31.80;19.00;;;;;;;2.08;100.00;99190.31;105176;1260;70196;-61
2023/12/13 03:11:40;;;;;;;29.10;16.10;;;;;;;2.10;100.00;99186.13;105148;1261;69188;-61
2023/12/13 03:14:08;;;;;;;32.20;17.80;;;;;;;2.10;100.00;99185.80;105152;1258;69305;-61
2023/12/13 03:16:36;;;;;;;29.20;17.40;;;;;;;2.11;100.00;99187.49;105130;1260;71577;-61
2023/12/13 03:19:04;;;;;;;29.00;17.10;;;;;;;2.12;100.00;99182.83;105132;1260;81796;-61
2023/12/13 03:21:33;;;;;;;35.40;18.60;;;;;;;2.14;100.00;99182.95;105187;1258;71296;-61
2023/12/13 03:24:01;;;;;;;36.70;19.50;;;;;;;2.16;100.00;99178.91;105160;1258;69120;-61
2023/12/13 03:26:29;;;;;;;30.40;18.40;;;;;;;2.18;100.00;99175.95;105127;1260;69199;-61
2023/12/13 03:28:57;;;;;;;31.20;17.30;;;;;;;2.19;100.00;99175.41;105185;1257;73168;-61
2023/12/13 03:31:25;;;;;;;31.90;17.30;;;;;;;2.21;100.00;99170.02;105127;1257;81992;-61
2023/12/13 03:33:55;;;;;;;31.90;17.70;;;;;;;2.26;100.00;99164.76;105111;1261;72061;-61
2023/12/13 03:36:23;;;;;;;30.60;18.20;;;;;;;2.28;100.00;99156.60;105171;1258;69153;-61
2023/12/13 03:38:51;;;;;;;36.80;18.90;;;;;;;2.30;100.00;99153.96;105128;1261;69148;-61
2023/12/13 03:41:19;;;;;;;32.50;18.60;;;;;;;2.33;100.00;99147.35;105137;1257;73282;-61
2023/12/13 03:43:47;;;;;;;28.90;18.30;;;;;;;2.34;100.00;99141.80;105213;1260;80117;-61
2023/12/13 03:46:16;;;;;;;24.20;15.60;;;;;;;2.37;100.00;99139.16;105116;1257;73066;-61
2023/12/13 03:48:44;;;;;;;26.90;15.70;;;;;;;2.37;100.00;99129.65;105170;1257;69131;-61
2023/12/13 03:51:13;;;;;;;30.30;16.80;;;;;;;2.38;100.00;99128.25;105193;1257;69216;-61
2023/12/13 03:53:42;;;;;;;30.70;17.40;;;;;;;2.40;100.00;99121.13;105098;1260;73242;-61
2023/12/13 03:56:11;;;;;;;26.80;16.70;;;;;;;2.42;100.00;99118.34;105130;1258;82826;-61
2023/12/13 03:58:39;;;;;;;28.70;17.10;;;;;;;2.43;100.00;99121.23;105169;1259;71609;-61
2023/12/13 04:01:08;;;;;;;29.90;18.00;;;;;;;2.47;100.00;99121.67;105125;1261;69210;-61
2023/12/13 04:03:36;;;;;;;27.60;16.00;;;;;;;2.47;100.00;99118.38;105158;1257;69132;-61
2023/12/13 04:06:05;;;;;;;31.90;17.50;;;;;;;2.48;100.00;99118.19;105151;1260;74011;-61
2023/12/13 04:08:34;;;;;;;30.20;17.50;;;;;;;2.49;100.00;99117.30;105175;1260;81557;-61
2023/12/13 04:11:02;;;;;;;31.50;16.60;;;;;;;2.46;100.00;99115.82;105147;1260;72501;-61
2023/12/13 04:13:30;;;;;;;26.20;15.40;;;;;;;2.41;100.00;99115.76;105180;1258;69131;-61
2023/12/13 04:15:58;;;;;;;25.60;16.50;;;;;;;2.37;100.00;99112.59;105120;1260;69196;-61
2023/12/13 04:18:27;;;;;;;25.50;16.30;;;;;;;2.30;100.00;99109.66;105225;1256;72889;-61
2023/12/13 04:20:55;;;;;;;26.90;16.10;;;;;;;2.27;100.00;99103.70;105092;1260;81699;-61
2023/12/13 04:23:24;;;;;;;26.60;15.70;;;;;;;2.23;100.00;99100.34;105122;1257;71930;-61
2023/12/13 04:25:52;;;;;;;23.70;14.70;;;;;;;2.16;100.00;99098.45;105104;1260;69240;-60
2023/12/13 04:28:21;;;;;;;25.70;15.30;;;;;;;2.09;100.00;99092.43;105134;1260;69151;-61
2023/12/13 04:30:49;;;;;;;27.60;15.70;;;;;;;2.00;100.00;99091.23;105159;1258;73541;-61
2023/12/13 04:33:18;;;;;;;25.90;16.20;;;;;;;1.92;100.00;99090.58;105240;1260;81973;-61
2023/12/13 04:35:47;;;;;;;23.50;14.30;;;;;;;1.82;100.00;99093.20;105157;1260;71949;-61
2023/12/13 04:38:15;;;;;;;25.90;16.20;;;;;;;1.77;100.00;99091.75;105182;1261;69200;-61
2023/12/13 04:40:43;;;;;;;32.40;17.50;;;;;;;1.74;100.00;99091.48;105165;1260;69212;-61
2023/12/13 04:43:11;;;;;;;35.90;19.10;;;;;;;1.73;100.00;99092.89;105130;1257;73241;-61
2023/12/13 04:45:40;;;;;;;28.90;16.70;;;;;;;1.72;100.00;99093.77;105124;1260;81954;-61
2023/12/13 04:48:08;;;;;;;33.70;17.20;;;;;;;1.68;100.00;99095.59;105108;1257;70410;-61
2023/12/13 04:50:36;;;;;;;34.40;17.70;;;;;;;1.59;100.00;99091.64;105147;1261;69154;-61
2023/12/13 04:53:04;;;;;;;30.50;16.50;;;;;;;1.53;100.00;99089.70;105134;1261;69224;-61
2023/12/13 04:55:33;;;;;;;31.10;18.20;;;;;;;1.46;100.00;99088.47;105193;1257;73418;-61
2023/12/13 04:58:02;;;;;;;31.30;17.70;;;;;;;1.42;100.00;99084.42;105198;1256;81999;-61
2023/12/13 05:00:30;;;;;;;24.80;15.70;;;;;;;1.38;100.00;99089.33;105193;1258;70341;-60
2023/12/13 05:02:58;;;;;;;30.40;17.50;;;;;;;1.31;100.00;99089.12;105145;1257;69156;-61
2023/12/13 05:05:26;;;;;;;27.90;15.30;;;;;;;1.29;100.00;99087.80;105154;1260;69201;-61
2023/12/13 05:07:55;;;;;;;30.40;18.10;;;;;;;1.26;100.00;99086.48;105220;1260;74175;-61
2023/12/13 05:10:23;;;;;;;29.40;16.50;;;;;;;1.29;100.00;99079.88;105177;1260;81514;-61
2023/12/13 05:12:51;;;;;;;36.00;19.10;;;;;;;1.29;100.00;99080.73;105101;1257;73030;-61
2023/12/13 05:15:19;;;;;;;34.40;18.70;;;;;;;1.33;100.00;99072.38;105178;1260;69173;-61
2023/12/13 05:17:48;;;;;;;30.80;17.60;;;;;;;1.32;100.00;99065.70;105171;1260;69157;-61
2023/12/13 05:20:16;;;;;;;30.00;16.70;;;;;;;1.31;100.00;99061.77;105132;1257;72648;-61
2023/12/13 05:22:44;;;;;;;29.30;16.90;;;;;;;1.29;100.00;99055.24;105160;1260;82858;-61
2023/12/13 05:25:12;;;;;;;30.00;17.60;;;;;;;1.28;100.00;99058.91;105143;1257;72462;-61
2023/12/13 05:27:44;;;;;;;31.30;17.20;;;;;;;1.25;100.00;99059.14;105125;1260;69123;-61
2023/12/13 05:30:12;;;;;;;29.60;16.80;;;;;;;1.25;100.00;99056.73;105163;1260;69193;-61
2023/12/13 05:32:41;;;;;;;26.60;15.90;;;;;;;1.22;100.00;99049.91;105063;1257;73283;-61
2023/12/13 05:35:09;;;;;;;32.70;16.70;;;;;;;1.19;100.00;99051.88;105189;1260;81685;-61
2023/12/13 05:37:37;;;;;;;27.80;16.20;;;;;;;1.15;100.00;99053.33;105143;1257;73197;-61
2023/12/13 05:40:06;;;;;;;29.60;16.00;;;;;;;1.14;100.00;99048.17;105195;1260;69093;-61
2023/12/13 05:42:34;;;;;;;60.60;25.20;;;;;;;1.13;100.00;99048.89;105167;1258;69161;-61
2023/12/13 05:45:03;;;;;;;97.10;36.70;;;;;;;1.14;100.00;99046.29;105134;1257;73337;-61
2023/12/13 05:47:32;;;;;;;117.90;44.10;;;;;;;1.16;100.00;99051.23;105193;1256;82257;-61
2023/12/13 05:50:01;;;;;;;112.50;44.80;;;;;;;1.17;100.00;99054.14;105134;1258;70932;-61
2023/12/13 05:52:32;;;;;;;74.20;32.80;;;;;;;1.26;100.00;99049.81;105131;1257;69131;-61
2023/12/13 05:55:00;;;;;;;92.10;40.60;;;;;;;1.39;100.00;99043.19;105141;1257;69077;-61
2023/12/13 05:57:29;;;;;;;55.00;27.90;;;;;;;1.46;100.00;99037.70;105182;1261;72115;-61
2023/12/13 05:59:57;;;;;;;46.00;23.90;;;;;;;1.48;100.00;99031.64;105191;1256;81655;-61
2023/12/13 06:02:26;;;;;;;31.60;18.80;;;;;;;1.49;100.00;99028.52;105181;1260;71840;-61
2023/12/13 06:04:54;;;;;;;35.30;19.80;;;;;;;1.50;100.00;99028.66;105099;1260;69089;-61
2023/12/13 06:07:25;;;;;;;36.40;19.90;;;;;;;1.52;100.00;99028.96;105107;1260;70773;-61
2023/12/13 06:09:53;;;;;;;45.40;22.40;;;;;;;1.54;100.00;99028.39;105160;1260;72097;-61
2023/12/13 06:12:21;;;;;;;38.10;20.10;;;;;;;1.49;100.00;99030.39;105148;1260;82813;-61
2023/12/13 06:14:50;;;;;;;39.00;19.40;;;;;;;1.45;100.00;99030.14;105130;1257;70496;-61
2023/12/13 06:17:18;;;;;;;34.60;18.70;;;;;;;1.42;100.00;99031.23;105153;1256;69057;-61
2023/12/13 06:19:46;;;;;;;40.30;20.40;;;;;;;1.40;100.00;99028.20;105181;1260;69167;-61
2023/12/13 06:22:14;;;;;;;35.50;20.00;;;;;;;1.37;100.00;99030.48;105147;1256;73210;-61
2023/12/13 06:24:43;;;;;;;33.20;19.30;;;;;;;1.34;100.00;99028.66;105131;1256;82688;-60
2023/12/13 06:27:11;;;;;;;33.80;18.80;;;;;;;1.32;100.00;99032.83;105097;1261;72092;-61
2023/12/13 06:29:39;;;;;;;38.10;19.50;;;;;;;1.30;100.00;99034.43;105093;1258;69208;-61
2023/12/13 06:32:07;;;;;;;35.80;19.80;;;;;;;1.30;100.00;99033.55;105087;1260;69282;-60
2023/12/13 06:34:35;;;;;;;32.90;20.00;;;;;;;1.33;100.00;99031.09;105113;1256;73610;-61
2023/12/13 06:37:03;;;;;;;34.60;20.20;;;;;;;1.41;100.00;99028.16;105121;1260;81666;-61
2023/12/13 06:39:32;;;;;;;38.60;20.10;;;;;;;1.48;100.00;99029.73;105100;1257;72148;-61
2023/12/13 06:42:00;;;;;;;36.20;22.40;;;;;;;1.54;100.00;99029.59;105131;1258;69261;-61
2023/12/13 06:44:28;;;;;;;38.00;20.40;;;;;;;1.55;100.00;99027.17;105131;1260;69216;-61
2023/12/13 06:46:57;;;;;;;37.60;21.70;;;;;;;1.62;100.00;99026.16;105122;1257;73123;-61
2023/12/13 06:49:30;;;;;;;39.00;20.60;;;;;;;1.69;100.00;99033.38;105143;1260;82018;-61
2023/12/13 06:51:59;;;;;;;36.70;21.60;;;;;;;1.77;100.00;99031.30;105127;1257;71600;-61
2023/12/13 06:54:29;;;;;;;42.60;21.60;;;;;;;1.84;100.00;99033.05;105140;1260;69137;-61
2023/12/13 06:56:58;;;;;;;38.30;21.20;;;;;;;1.91;100.00;99033.23;105153;1261;69213;-61
2023/12/13 06:59:26;;;;;;;35.10;21.10;;;;;;;2.00;100.00;99029.91;105207;1258;73338;-61
2023/12/13 07:01:54;;;;;;;41.10;21.70;;;;;;;2.09;100.00;99029.52;105131;1260;81809;-61
2023/12/13 07:04:22;;;;;;;38.10;21.20;;;;;;;2.16;100.00;99028.14;105115;1257;71730;-61
2023/12/13 07:06:54;;;;;;;35.50;21.90;;;;;;;2.22;100.00;99026.27;105130;1259;69164;-61
2023/12/13 07:09:22;;;;;;;37.60;21.90;;;;;;;2.29;100.00;99027.82;105183;1257;69187;-61
2023/12/13 07:11:51;;;;;;;38.50;20.20;;;;;;;2.34;100.00;99026.14;105226;1260;72834;-61
2023/12/13 07:14:19;;;;;;;36.20;19.20;;;;;;;2.41;100.00;99027.67;105103;1256;80435;-61
2023/12/13 07:16:47;;;;;;;36.20;19.70;;;;;;;2.48;100.00;99024.05;105090;1261;70631;-61
2023/12/13 07:19:16;;;;;;;38.20;21.10;;;;;;;2.55;100.00;99025.77;105194;1256;69097;-61
2023/12/13 07:21:45;;;;;;;36.10;19.50;;;;;;;2.61;100.00;99026.63;105186;1256;69163;-61
2023/12/13 07:24:13;;;;;;;34.10;18.80;;;;;;;2.67;100.00;99025.61;105124;1257;71589;-61
2023/12/13 07:26:41;;;;;;;35.50;18.10;;;;;;;2.72;100.00;99021.67;105145;1261;81366;-61
2023/12/13 07:29:10;;;;;;;34.20;19.00;;;;;;;2.79;100.00;99021.50;105111;1256;72120;-61
2023/12/13 07:31:41;;;;;;;29.20;17.90;;;;;;;2.84;100.00;99021.34;105118;1260;69157;-61
2023/12/13 07:34:10;;;;;;;35.50;18.80;;;;;;;2.90;100.00;99027.92;105141;1259;69170;-61
2023/12/13 07:36:42;;;;;;;41.80;23.60;;;;;;;2.95;100.00;99029.52;105174;1256;74235;-61
2023/12/13 07:39:10;;;;;;;42.20;23.80;;;;;;;3.00;100.00;99035.39;105162;1256;81610;-61
2023/12/13 07:41:39;;;;;;;46.10;25.00;;;;;;;3.04;100.00;99037.88;105121;1257;72409;-61
2023/12/13 07:44:07;;;;;;;35.60;21.10;;;;;;;3.09;100.00;99038.26;105116;1257;69255;-61
2023/12/13 07:46:36;;;;;;;33.80;19.30;;;;;;;3.12;100.00;99038.34;105126;1260;69184;-61
2023/12/13 07:49:04;;;;;;;34.00;19.00;;;;;;;3.16;100.00;99037.55;105178;1257;73259;-61
2023/12/13 07:51:33;;;;;;;64.20;36.60;;;;;;;3.19;100.00;99031.08;105111;1260;81610;-61
2023/12/13 07:54:02;;;;;;;51.50;29.70;;;;;;;3.21;100.00;99026.16;105127;1260;71628;-61
2023/12/13 07:56:31;;;;;;;41.30;24.80;;;;;;;3.24;100.00;99024.88;105139;1261;69584;-61
2023/12/13 07:58:59;;;;;;;31.50;19.50;;;;;;;3.26;100.00;99023.94;105189;1261;69170;-61
2023/12/13 08:01:28;;;;;;;29.20;17.90;;;;;;;3.28;100.00;99025.45;105122;1256;73510;-61
2023/12/13 08:03:56;;;;;;;34.50;17.40;;;;;;;3.30;100.00;99027.10;105210;1260;81381;-62
2023/12/13 08:06:25;;;;;;;34.70;18.40;;;;;;;3.33;100.00;99027.70;105210;1257;70855;-61
2023/12/13 08:08:53;;;;;;;31.70;17.20;;;;;;;3.38;100.00;99026.88;105130;1256;69182;-61
2023/12/13 08:11:21;;;;;;;29.90;17.30;;;;;;;3.42;100.00;99027.62;105150;1260;69195;-61
2023/12/13 08:13:49;;;;;;;28.30;16.70;;;;;;;3.47;100.00;99030.59;105112;1257;72488;-61
2023/12/13 08:16:22;;;;;;;25.80;15.40;;;;;;;3.52;100.00;99028.54;105116;1258;82979;-61
2023/12/13 08:18:51;;;;;;;25.00;15.40;;;;;;;3.53;100.00;99029.52;105094;1258;71920;-62
2023/12/13 08:21:21;;;;;;;27.50;16.50;;;;;;;3.54;100.00;99031.06;105192;1256;69086;-62
2023/12/13 08:23:50;;;;;;;24.90;14.10;;;;;;;3.56;100.00;99029.96;105159;1261;69131;-62
2023/12/13 08:26:20;;;;;;;28.00;15.60;;;;;;;3.60;100.00;99033.99;105144;1260;72824;-62
2023/12/13 08:28:48;;;;;;;31.20;15.50;;;;;;;3.64;100.00;99034.73;105203;1260;80356;-61
2023/12/13 08:31:32;;;;;;;25.30;15.10;;;;;;;3.68;100.00;99034.43;105165;1256;72161;-62
2023/12/13 08:34:01;;;;;;;25.80;15.00;;;;;;;3.70;100.00;99036.80;105218;1260;69122;-62
2023/12/13 08:36:29;;;;;;;28.00;15.30;;;;;;;3.72;100.00;99039.17;105096;1260;69246;-62
2023/12/13 08:38:57;;;;;;;28.30;14.70;;;;;;;3.73;100.00;99036.19;105137;1260;71641;-62
2023/12/13 08:41:27;;;;;;;29.10;15.60;;;;;;;3.74;100.00;99039.27;105201;1260;81487;-62
2023/12/13 08:43:56;;;;;;;27.50;15.00;;;;;;;3.76;100.00;99039.04;105172;1256;71803;-62
2023/12/13 08:46:24;;;;;;;26.80;14.00;;;;;;;3.78;100.00;99039.31;105093;1260;69117;-62
2023/12/13 08:48:53;;;;;;;27.80;14.20;;;;;;;3.81;100.00;99036.29;105111;1260;69225;-62
2023/12/13 08:51:21;;;;;;;29.60;15.20;;;;;;;3.85;100.00;99034.27;105185;1256;72816;-62
2023/12/13 08:53:54;;;;;;;28.70;14.80;;;;;;;3.88;100.00;99034.35;105140;1256;81367;-62
2023/12/13 08:56:22;;;;;;;28.80;14.80;;;;;;;3.91;100.00;99037.16;105133;1260;71682;-61
2023/12/13 08:58:50;;;;;;;24.80;13.50;;;;;;;3.95;100.00;99038.95;105116;1258;69150;-61
2023/12/13 09:01:18;;;;;;;26.70;14.20;;;;;;;3.98;100.00;99036.27;105143;1260;69185;-61
2023/12/13 09:03:52;;;;;;;26.30;15.50;;;;;;;4.00;100.00;99036.18;105164;1260;73342;-61
2023/12/13 09:06:21;;;;;;;31.60;15.00;;;;;;;4.03;100.00;99031.94;105099;1260;81888;-61
2023/12/13 09:08:49;;;;;;;30.70;14.90;;;;;;;4.05;100.00;99031.20;105161;1256;71025;-61
2023/12/13 09:11:18;;;;;;;26.50;14.80;;;;;;;4.07;100.00;99029.58;105092;1260;69132;-61
2023/12/13 09:13:46;;;;;;;34.80;14.70;;;;;;;4.07;100.00;99030.09;105220;1260;69192;-62
2023/12/13 09:16:14;;;;;;;25.50;13.80;;;;;;;4.08;100.00;99034.74;105161;1257;73298;-62
2023/12/13 09:18:44;;;;;;;26.20;13.70;;;;;;;4.09;100.00;99035.55;105096;1260;82824;-62
2023/12/13 09:21:12;;;;;;;27.40;13.90;;;;;;;4.12;100.00;99037.90;105176;1257;72397;-62
2023/12/13 09:23:40;;;;;;;27.20;14.30;;;;;;;4.13;100.00;99035.27;105090;1260;69140;-61
2023/12/13 09:26:13;;;;;;;24.90;13.60;;;;;;;4.14;100.00;99037.81;105143;1260;69172;-61
2023/12/13 09:28:42;;;;;;;27.70;14.40;;;;;;;4.15;100.00;99037.25;105174;1257;71343;-61
2023/12/13 09:31:11;;;;;;;24.30;14.10;;;;;;;4.17;100.00;99037.70;105126;1259;81705;-61
2023/12/13 09:33:40;;;;;;;26.90;14.20;;;;;;;4.19;100.00;99037.15;105165;1261;71947;-61
2023/12/13 09:36:09;;;;;;;26.30;14.00;;;;;;;4.20;100.00;99035.89;105185;1257;69154;-62
2023/12/13 09:38:37;;;;;;;23.10;14.50;;;;;;;4.21;100.00;99038.46;105161;1260;69192;-62
2023/12/13 09:41:07;;;;;;;26.00;15.20;;;;;;;4.22;100.00;99037.56;105128;1260;72025;-62
2023/12/13 09:43:40;;;;;;;26.40;14.10;;;;;;;4.23;100.00;99040.64;105209;1256;82782;-63
2023/12/13 09:46:13;;;;;;;26.00;14.50;;;;;;;4.24;100.00;99035.25;105125;1257;71893;-62
2023/12/13 09:48:45;;;;;;;24.50;13.20;;;;;;;4.25;100.00;99033.83;105102;1257;69186;-63
2023/12/13 09:51:15;;;;;;;25.00;13.90;;;;;;;4.26;100.00;99032.57;105143;1257;69103;-64
2023/12/13 09:53:46;;;;;;;23.90;14.20;;;;;;;4.29;100.00;99032.67;105113;1257;75094;-64
2023/12/13 09:56:14;;;;;;;30.70;14.80;;;;;;;4.30;100.00;99030.39;105168;1256;81164;-63
2023/12/13 09:58:43;;;;;;;26.80;14.90;;;;;;;4.32;100.00;99028.59;105191;1256;70104;-64
2023/12/13 10:01:12;;;;;;;28.70;14.60;;;;;;;4.33;100.00;99027.02;105157;1260;69212;-63
2023/12/13 10:03:41;;;;;;;29.20;15.80;;;;;;;4.35;100.00;99023.82;105169;1256;69113;-62
2023/12/13 10:06:10;;;;;;;26.70;14.60;;;;;;;4.36;100.00;99016.52;105270;1261;72210;-62
2023/12/13 10:08:38;;;;;;;26.90;15.10;;;;;;;4.36;100.00;99017.22;105184;1261;82121;-62
2023/12/13 10:11:06;;;;;;;23.30;13.10;;;;;;;4.35;100.00;99013.78;105115;1257;72277;-61
2023/12/13 10:13:35;;;;;;;26.20;14.90;;;;;;;4.36;100.00;99012.89;105153;1256;69185;-62
2023/12/13 10:16:13;;;;;;;29.00;15.20;;;;;;;4.36;100.00;99011.15;105129;1256;69870;-62
2023/12/13 10:18:41;;;;;;;25.30;14.40;;;;;;;4.38;100.00;99001.21;105156;1256;73000;-62
2023/12/13 10:21:10;;;;;;;25.50;14.50;;;;;;;4.40;100.00;99002.70;105241;1256;81721;-62
2023/12/13 10:23:41;;;;;;;27.80;15.10;;;;;;;4.44;100.00;99001.55;105176;1261;70727;-63
2023/12/13 10:26:09;;;;;;;23.60;14.50;;;;;;;4.46;100.00;98995.92;105173;1256;69067;-63
2023/12/13 10:28:38;;;;;;;30.00;15.40;;;;;;;4.48;100.00;98998.27;105183;1261;69218;-63
2023/12/13 10:31:06;;;;;;;25.60;14.00;;;;;;;4.49;100.00;98993.75;105233;1256;73344;-63
2023/12/13 10:33:35;;;;;;;23.00;13.80;;;;;;;4.50;100.00;98996.16;105213;1260;81494;-63
2023/12/13 10:36:04;;;;;;;28.40;14.70;;;;;;;4.51;100.00;98993.88;105187;1257;71071;-63
2023/12/13 10:38:33;;;;;;;28.50;15.10;;;;;;;4.52;100.00;98995.72;105169;1256;69138;-63
2023/12/13 10:41:02;;;;;;;23.90;15.00;;;;;;;4.55;100.00;98996.15;105196;1261;69251;-63
2023/12/13 10:43:31;;;;;;;27.80;14.90;;;;;;;4.60;100.00;98991.83;105163;1257;72287;-63
2023/12/13 10:46:01;;;;;;;27.30;15.60;;;;;;;4.63;100.00;98987.02;105186;1260;81480;-62
2023/12/13 10:48:35;;;;;;;27.90;15.70;;;;;;;4.68;100.00;98987.36;105166;1256;72192;-63
2023/12/13 10:51:04;;;;;;;27.30;15.30;;;;;;;4.75;100.00;98983.16;105179;1257;69146;-63
2023/12/13 10:53:34;;;;;;;27.40;16.20;;;;;;;4.82;100.00;98985.16;105182;1257;69183;-63
2023/12/13 10:56:02;;;;;;;25.50;14.70;;;;;;;4.89;100.00;98985.23;104961;1261;282299;-62
2023/12/13 10:58:31;;;;;;;24.00;15.90;;;;;;;4.98;100.00;98980.59;105197;1261;82045;-63
2023/12/13 11:01:01;;;;;;;30.40;18.10;;;;;;;5.05;100.00;98977.38;105232;1256;70623;-63
2023/12/13 11:03:45;;;;;;;32.40;19.80;;;;;;;5.11;100.00;98978.73;105123;1257;69202;-62
2023/12/13 11:06:16;;;;;;;30.30;17.50;;;;;;;5.16;100.00;98973.48;105154;1257;69077;-62
2023/12/13 11:08:44;;;;;;;28.10;16.20;;;;;;;5.22;100.00;98971.89;105171;1257;72905;-62
2023/12/13 11:11:16;;;;;;;27.00;16.00;;;;;;;5.26;100.00;98973.27;105145;1260;81416;-62
2023/12/13 11:13:48;;;;;;;31.20;15.60;;;;;;;5.28;100.00;98974.25;105136;1260;73752;-63
2023/12/13 11:16:22;;;;;;;27.90;15.10;;;;;;;5.30;100.00;98971.40;105103;1257;69094;-62